createdAt,value
2019-05-03T00:00:12.588Z,57.35
2019-05-03T00:02:52.254Z,55.89
2019-05-03T00:05:32.323Z,53.24
2019-05-03T00:08:03.483Z,54.67
2019-05-03T00:10:32.132Z,54.67
2019-05-03T00:13:01.946Z,53.43
2019-05-03T00:15:43.261Z,56.43
2019-05-03T00:18:11.868Z,53.94
2019-05-03T00:20:42.023Z,53.52
2019-05-03T00:23:12.113Z,53.52
2019-05-03T00:25:41.869Z,54.23
2019-05-03T00:28:10.750Z,54.23
2019-05-03T00:30:39.349Z,54.34
2019-05-03T00:33:08.020Z,54.47
2019-05-03T00:35:58.845Z,54.01
2019-05-03T00:38:27.461Z,55.64
2019-05-03T00:40:56.128Z,54.64
2019-05-03T00:43:24.756Z,55.05
2019-05-03T00:45:53.348Z,54.60
2019-05-03T00:48:22.233Z,54.48
2019-05-03T00:50:51.785Z,54.48
2019-05-03T00:53:22.229Z,58.75
2019-05-03T00:55:52.525Z,54.80
2019-05-03T00:58:22.431Z,58.04
2019-05-03T01:00:52.497Z,56.51
2019-05-03T01:03:21.912Z,56.89
2019-05-03T01:05:52.734Z,56.67
2019-05-03T01:08:22.065Z,53.85
2019-05-03T01:10:51.662Z,54.77
2019-05-03T01:13:21.894Z,55.57
2019-05-03T01:16:02.869Z,52.78
2019-05-03T01:18:32.393Z,54.45
2019-05-03T01:21:02.304Z,54.08
2019-05-03T01:23:32.598Z,53.56
2019-05-03T01:26:02.455Z,52.11
2019-05-03T01:28:32.357Z,52.53
2019-05-03T01:31:02.550Z,53.05
2019-05-03T01:33:32.180Z,51.13
2019-05-03T01:36:02.719Z,49.93
2019-05-03T01:38:32.114Z,51.28
2019-05-03T01:41:01.720Z,54.10
2019-05-03T01:43:31.710Z,53.44
2019-05-03T01:46:02.538Z,53.88
2019-05-03T01:48:55.580Z,54.05
2019-05-03T01:51:42.086Z,53.76
2019-05-03T01:54:12.278Z,55.25
2019-05-03T01:56:49.954Z,55.28
2019-05-03T01:59:12.322Z,54.16
2019-05-03T02:01:48.210Z,52.77
2019-05-03T02:04:23.817Z,53.20
2019-05-03T02:06:52.472Z,54.11
2019-05-03T02:09:21.718Z,52.92
2019-05-03T02:11:52.504Z,53.32
2019-05-03T02:14:22.183Z,52.39
2019-05-03T02:16:52.317Z,52.05
2019-05-03T02:19:22.033Z,53.04
2019-05-03T02:21:52.373Z,54.25
2019-05-03T02:24:22.172Z,52.93
2019-05-03T02:26:52.816Z,55.17
2019-05-03T02:29:21.925Z,54.32
2019-05-03T02:31:53.405Z,55.19
2019-05-03T02:34:23.913Z,54.53
2019-05-03T02:36:53.824Z,53.50
2019-05-03T02:39:22.832Z,52.58
2019-05-03T02:41:58.602Z,54.52
2019-05-03T02:44:26.549Z,53.58
2019-05-03T02:47:16.026Z,54.80
2019-05-03T02:49:58.046Z,56.01
2019-05-03T02:52:37.067Z,52.62
2019-05-03T02:55:08.029Z,52.49
2019-05-03T02:57:36.666Z,50.40
2019-05-03T03:02:45.422Z,53.30
2019-05-03T03:05:16.309Z,53.67
2019-05-03T03:07:46.044Z,53.88
2019-05-03T03:10:17.134Z,51.74
2019-05-03T03:12:46.570Z,53.21
2019-05-03T03:15:16.191Z,52.02
2019-05-03T03:17:45.870Z,51.03
2019-05-03T03:20:16.648Z,51.72
2019-05-03T03:22:45.824Z,52.80
2019-05-03T03:25:19.676Z,51.21
2019-05-03T03:27:50.050Z,50.60
2019-05-03T03:30:38.814Z,49.69
2019-05-03T03:33:10.657Z,51.74
2019-05-03T03:35:42.191Z,52.79
2019-05-03T03:38:10.867Z,51.86
2019-05-03T03:40:40.088Z,52.69
2019-05-03T03:43:10.183Z,52.18
2019-05-03T03:45:39.506Z,52.07
2019-05-03T03:48:08.678Z,50.88
2019-05-03T03:50:37.711Z,50.30
2019-05-03T03:53:06.860Z,50.58
2019-05-03T03:55:36.624Z,56.69
2019-05-03T03:58:06.555Z,53.23
2019-05-03T04:00:36.165Z,52.67
2019-05-03T04:03:05.976Z,51.75
2019-05-03T04:05:35.900Z,51.62
2019-05-03T04:08:05.647Z,51.54
2019-05-03T04:10:35.269Z,53.27
2019-05-03T04:13:05.685Z,52.41
2019-05-03T04:15:51.877Z,51.18
2019-05-03T04:18:49.071Z,50.99
2019-05-03T04:21:17.737Z,51.21
2019-05-03T04:23:46.452Z,51.71
2019-05-03T04:26:16.228Z,51.92
2019-05-03T04:28:45.498Z,51.79
2019-05-03T04:31:15.221Z,50.94
2019-05-03T04:33:45.033Z,50.92
2019-05-03T04:36:16.013Z,51.43
2019-05-03T04:38:45.599Z,54.48
2019-05-03T04:41:15.886Z,52.97
2019-05-03T04:43:45.965Z,52.80
2019-05-03T04:46:20.848Z,53.35
2019-05-03T04:48:49.576Z,52.04
2019-05-03T04:51:18.172Z,53.06
2019-05-03T04:53:55.725Z,54.15
2019-05-03T04:56:25.968Z,52.70
2019-05-03T04:58:55.963Z,50.96
2019-05-03T05:01:26.097Z,52.58
2019-05-03T05:03:55.888Z,50.69
2019-05-03T05:06:25.830Z,51.02
2019-05-03T05:08:55.155Z,50.40
2019-05-03T05:11:26.275Z,51.32
2019-05-03T05:13:56.007Z,50.46
2019-05-03T05:16:25.363Z,49.53
2019-05-03T05:18:58.256Z,51.37
2019-05-03T05:21:31.374Z,51.55
2019-05-03T05:24:05.506Z,51.48
2019-05-03T05:26:48.928Z,51.31
2019-05-03T05:29:19.636Z,51.80
2019-05-03T05:31:48.241Z,49.98
2019-05-03T05:34:16.852Z,50.04
2019-05-03T05:36:45.887Z,49.59
2019-05-03T05:39:18.784Z,50.19
2019-05-03T05:41:47.950Z,49.35
2019-05-03T05:44:16.794Z,51.63
2019-05-03T05:46:54.308Z,50.41
2019-05-03T05:50:00.276Z,50.45
2019-05-03T05:52:28.881Z,50.16
2019-05-03T05:55:06.082Z,49.95
2019-05-03T05:58:04.728Z,49.89
2019-05-03T06:00:40.344Z,49.31
2019-05-03T06:03:09.456Z,48.85
2019-05-03T06:05:39.504Z,48.00
2019-05-03T06:08:26.126Z,47.91
2019-05-03T06:11:14.764Z,47.96
2019-05-03T06:13:50.649Z,47.47
2019-05-03T06:16:38.697Z,48.27
2019-05-03T06:19:17.177Z,46.90
2019-05-03T06:22:23.048Z,48.09
2019-05-03T06:24:57.448Z,47.81
2019-05-03T06:27:30.864Z,48.21
2019-05-03T06:30:04.690Z,48.04
2019-05-03T06:32:35.964Z,49.61
2019-05-03T06:35:05.025Z,48.36
2019-05-03T06:37:38.913Z,47.50
2019-05-03T06:40:07.686Z,48.71
2019-05-03T06:42:36.293Z,49.51
2019-05-03T06:45:10.425Z,49.57
2019-05-03T06:47:40.308Z,48.98
2019-05-03T06:50:06.598Z,49.15
2019-05-03T06:52:35.252Z,48.80
2019-05-03T06:55:06.520Z,50.36
2019-05-03T06:57:35.456Z,50.66
2019-05-03T07:00:21.804Z,48.51
2019-05-03T07:02:56.046Z,47.74
2019-05-03T07:05:49.581Z,47.72
2019-05-03T07:08:36.006Z,48.01
2019-05-03T07:11:05.359Z,48.45
2019-05-03T07:13:34.572Z,47.92
2019-05-03T07:16:04.698Z,48.16
2019-05-03T07:18:35.199Z,46.97
2019-05-03T07:21:04.846Z,45.71
2019-05-03T07:23:34.927Z,47.99
2019-05-03T07:26:05.379Z,48.04
2019-05-03T07:28:46.453Z,46.91
2019-05-03T07:31:04.878Z,43.94
2019-05-03T07:33:34.849Z,44.69
2019-05-03T07:36:05.326Z,44.28
2019-05-03T07:38:34.993Z,46.06
2019-05-03T07:41:05.330Z,46.06
2019-05-03T07:43:35.884Z,45.09
2019-05-03T07:46:05.598Z,45.09
2019-05-03T07:48:35.361Z,42.69
2019-05-03T07:51:05.544Z,44.24
2019-05-03T07:53:34.886Z,42.97
2019-05-03T07:56:08.384Z,42.97
2019-05-03T07:58:37.596Z,43.26
2019-05-03T08:01:10.191Z,44.61
2019-05-03T08:03:38.821Z,44.62
2019-05-03T08:06:07.704Z,42.66
2019-05-03T08:08:36.294Z,42.66
2019-05-03T08:11:05.373Z,41.38
2019-05-03T08:13:35.539Z,40.29
2019-05-03T08:16:05.926Z,39.87
2019-05-03T08:18:35.466Z,42.74
2019-05-03T08:21:05.545Z,42.03
2019-05-03T08:23:35.393Z,42.03
2019-05-03T08:26:05.821Z,42.72
2019-05-03T08:28:35.185Z,41.22
2019-05-03T08:31:14.998Z,41.66
2019-05-03T08:33:50.867Z,40.89
2019-05-03T08:36:19.648Z,40.60
2019-05-03T08:38:48.501Z,37.45
2019-05-03T08:41:19.233Z,37.45
2019-05-03T08:43:48.172Z,34.93
2019-05-03T08:46:16.769Z,32.63
2019-05-03T08:48:45.709Z,33.18
2019-05-03T08:51:14.943Z,32.77
2019-05-03T08:53:45.829Z,32.64
2019-05-03T08:56:15.627Z,33.84
2019-05-03T08:58:45.095Z,32.58
2019-05-03T09:01:14.777Z,35.28
2019-05-03T09:03:45.712Z,33.85
2019-05-03T09:06:15.452Z,33.42
2019-05-03T09:08:45.771Z,33.54
2019-05-03T09:11:15.671Z,32.61
2019-05-03T09:13:55.798Z,32.01
2019-05-03T09:16:25.148Z,32.47
2019-05-03T09:18:54.928Z,35.85
2019-05-03T09:21:25.486Z,38.98
2019-05-03T09:23:55.381Z,39.18
2019-05-03T09:26:28.841Z,38.10
2019-05-03T09:28:55.609Z,37.75
2019-05-03T09:31:24.756Z,38.24
2019-05-03T09:33:54.824Z,37.36
2019-05-03T09:36:25.301Z,37.36
2019-05-03T09:38:54.946Z,35.89
2019-05-03T09:41:25.669Z,34.43
2019-05-03T09:43:55.513Z,33.80
2019-05-03T09:46:26.357Z,35.66
2019-05-03T09:49:09.424Z,35.91
2019-05-03T09:51:25.572Z,35.87
2019-05-03T09:53:59.431Z,37.05
2019-05-03T09:56:55.031Z,37.92
2019-05-03T09:59:15.848Z,35.86
2019-05-03T10:01:45.644Z,35.86
2019-05-03T10:04:17.778Z,36.16
2019-05-03T10:06:45.348Z,34.89
2019-05-03T10:09:15.450Z,33.28
2019-05-03T10:11:45.932Z,33.58
2019-05-03T10:14:15.570Z,33.16
2019-05-03T10:16:51.228Z,33.35
2019-05-03T10:19:19.827Z,33.48
2019-05-03T10:21:48.834Z,37.52
2019-05-03T10:24:17.456Z,37.12
2019-05-03T10:26:46.116Z,35.18
2019-05-03T10:29:15.300Z,33.95
2019-05-03T10:32:03.366Z,32.17
2019-05-03T10:34:31.990Z,32.19
2019-05-03T10:37:00.597Z,30.67
2019-05-03T10:39:29.185Z,31.42
2019-05-03T10:41:57.876Z,31.60
2019-05-03T10:44:26.539Z,32.20
2019-05-03T10:46:55.937Z,31.79
2019-05-03T10:49:24.682Z,32.62
2019-05-03T10:51:59.013Z,33.50
2019-05-03T10:54:27.616Z,33.59
2019-05-03T10:57:01.859Z,32.56
2019-05-03T10:59:30.673Z,33.73
2019-05-03T11:02:18.857Z,33.45
2019-05-03T11:04:47.485Z,32.87
2019-05-03T11:07:16.418Z,32.77
2019-05-03T11:09:49.721Z,31.14
2019-05-03T11:12:15.800Z,31.65
2019-05-03T11:14:45.604Z,30.83
2019-05-03T11:17:14.848Z,32.57
2019-05-03T11:19:45.429Z,30.94
2019-05-03T11:22:14.596Z,32.44
2019-05-03T11:24:45.331Z,34.08
2019-05-03T11:27:21.310Z,34.35
2019-05-03T11:29:49.922Z,33.16
2019-05-03T11:32:26.301Z,32.03
2019-05-03T11:35:05.996Z,31.34
2019-05-03T11:37:57.284Z,28.47
2019-05-03T11:40:26.124Z,30.26
2019-05-03T11:42:56.641Z,30.09
2019-05-03T11:45:25.511Z,30.16
2019-05-03T11:47:55.126Z,31.11
2019-05-03T11:50:25.382Z,30.82
2019-05-03T11:52:55.427Z,30.68
2019-05-03T11:55:26.697Z,30.41
2019-05-03T11:57:56.645Z,30.62
2019-05-03T12:00:30.481Z,30.69
2019-05-03T12:03:09.517Z,32.28
2019-05-03T12:05:38.438Z,31.10
2019-05-03T12:08:07.227Z,30.52
2019-05-03T12:10:52.495Z,31.66
2019-05-03T12:13:11.884Z,32.31
2019-05-03T12:15:40.842Z,29.91
2019-05-03T12:18:10.869Z,32.03
2019-05-03T12:20:40.746Z,32.02
2019-05-03T12:23:10.850Z,32.72
2019-05-03T12:25:40.346Z,31.77
2019-05-03T12:28:09.423Z,33.66
2019-05-03T12:30:39.540Z,34.65
2019-05-03T12:33:08.321Z,34.14
2019-05-03T12:35:37.163Z,32.93
2019-05-03T12:38:05.862Z,33.19
2019-05-03T12:40:34.940Z,31.48
2019-05-03T12:43:05.971Z,31.49
2019-05-03T12:45:35.404Z,31.70
2019-05-03T12:48:04.906Z,31.98
2019-05-03T12:50:34.718Z,31.85
2019-05-03T12:53:04.844Z,30.44
2019-05-03T12:55:35.532Z,30.97
2019-05-03T12:58:06.384Z,30.15
2019-05-03T13:00:56.725Z,31.54
2019-05-03T13:03:34.077Z,30.38
2019-05-03T13:06:05.242Z,30.10
2019-05-03T13:08:37.973Z,29.85
2019-05-03T13:11:06.802Z,30.13
2019-05-03T13:13:36.155Z,30.54
2019-05-03T13:16:05.262Z,30.94
2019-05-03T13:18:35.117Z,29.40
2019-05-03T13:21:05.738Z,27.40
2019-05-03T13:23:35.508Z,27.82
2019-05-03T13:26:05.560Z,29.21
2019-05-03T13:28:34.595Z,30.40
2019-05-03T13:31:05.436Z,30.17
2019-05-03T13:33:34.834Z,28.50
2019-05-03T13:36:03.740Z,29.95
2019-05-03T13:38:34.699Z,30.17
2019-05-03T13:41:03.139Z,29.64
2019-05-03T13:43:31.780Z,30.67
2019-05-03T13:46:00.420Z,30.44
2019-05-03T13:48:41.575Z,31.43
2019-05-03T13:50:59.708Z,30.24
2019-05-03T13:53:28.423Z,29.86
2019-05-03T13:55:57.278Z,30.33
2019-05-03T13:58:26.540Z,29.61
2019-05-03T14:00:55.281Z,31.16
2019-05-03T14:03:23.930Z,29.13
2019-05-03T14:05:52.570Z,30.03
2019-05-03T14:08:21.190Z,29.23
2019-05-03T14:10:50.036Z,29.81
2019-05-03T14:13:18.673Z,28.47
2019-05-03T14:15:47.622Z,28.44
2019-05-03T14:18:16.454Z,27.89
2019-05-03T14:21:07.248Z,30.02
2019-05-03T14:23:53.357Z,29.33
2019-05-03T14:26:30.702Z,30.34
2019-05-03T14:28:59.577Z,30.77
2019-05-03T14:31:28.196Z,29.33
2019-05-03T14:33:57.067Z,30.17
2019-05-03T14:36:25.683Z,28.61
2019-05-03T14:38:55.044Z,27.91
2019-05-03T14:41:25.444Z,28.25
2019-05-03T14:43:55.748Z,28.91
2019-05-03T14:46:32.533Z,29.33
2019-05-03T14:48:55.013Z,30.04
2019-05-03T14:51:25.354Z,30.34
2019-05-03T14:53:56.759Z,30.25
2019-05-03T14:56:34.769Z,29.71
2019-05-03T14:59:21.225Z,29.87
2019-05-03T15:02:00.682Z,30.27
2019-05-03T15:04:29.327Z,29.78
2019-05-03T15:06:58.097Z,29.31
2019-05-03T15:09:26.686Z,29.48
2019-05-03T15:11:55.349Z,30.27
2019-05-03T15:14:25.156Z,29.68
2019-05-03T15:16:55.702Z,29.26
2019-05-03T15:19:25.412Z,30.26
2019-05-03T15:21:54.734Z,31.14
2019-05-03T15:24:25.189Z,30.54
2019-05-03T15:26:55.407Z,29.72
2019-05-03T15:29:24.708Z,30.35
2019-05-03T15:31:55.232Z,29.54
2019-05-03T15:34:24.048Z,29.82
2019-05-03T15:36:54.711Z,30.40
2019-05-03T15:39:23.279Z,30.19
2019-05-03T15:41:52.058Z,30.00
2019-05-03T15:44:27.467Z,29.24
2019-05-03T15:47:20.996Z,29.73
2019-05-03T15:49:49.610Z,30.21
2019-05-03T15:52:18.471Z,29.73
2019-05-03T15:54:47.537Z,30.18
2019-05-03T15:57:16.886Z,29.40
2019-05-03T15:59:45.501Z,29.76
2019-05-03T16:02:15.219Z,32.09
2019-05-03T16:04:44.860Z,31.26
2019-05-03T16:07:14.441Z,32.12
2019-05-03T16:09:44.541Z,32.14
2019-05-03T16:12:14.546Z,31.24
2019-05-03T16:14:44.531Z,31.09
2019-05-03T16:17:14.713Z,31.52
2019-05-03T16:19:45.172Z,31.64
2019-05-03T16:22:14.403Z,31.54
2019-05-03T16:24:46.823Z,32.78
2019-05-03T16:27:47.376Z,32.23
2019-05-03T16:30:36.853Z,31.32
2019-05-03T16:33:05.638Z,32.04
2019-05-03T16:35:35.005Z,31.75
2019-05-03T16:38:06.178Z,33.63
2019-05-03T16:40:35.174Z,32.31
2019-05-03T16:43:03.864Z,33.05
2019-05-03T16:45:32.465Z,34.75
2019-05-03T16:48:01.150Z,33.36
2019-05-03T16:50:30.132Z,33.72
2019-05-03T16:52:58.768Z,33.11
2019-05-03T16:55:27.392Z,33.77
2019-05-03T16:57:56.244Z,33.75
2019-05-03T17:00:25.379Z,33.88
2019-05-03T17:02:55.149Z,32.73
2019-05-03T17:05:45.066Z,32.55
2019-05-03T17:08:34.538Z,33.34
2019-05-03T17:11:05.745Z,32.38
2019-05-03T17:13:34.731Z,33.05
2019-05-03T17:16:04.805Z,32.75
2019-05-03T17:18:35.290Z,33.27
2019-05-03T17:21:04.211Z,33.48
2019-05-03T17:23:35.131Z,31.78
2019-05-03T17:26:03.394Z,33.11
2019-05-03T17:28:31.996Z,32.63
2019-05-03T17:31:00.621Z,33.25
2019-05-03T17:33:29.478Z,32.48
2019-05-03T17:35:58.774Z,33.91
2019-05-03T17:38:27.704Z,33.91
2019-05-03T17:41:05.802Z,33.95
2019-05-03T17:43:47.778Z,33.78
2019-05-03T17:46:16.385Z,33.70
2019-05-03T17:48:45.327Z,32.91
2019-05-03T17:51:34.616Z,34.00
2019-05-03T17:54:12.410Z,33.57
2019-05-03T17:56:55.259Z,33.39
2019-05-03T17:59:31.286Z,33.39
2019-05-03T18:02:17.399Z,34.09
2019-05-03T18:05:11.442Z,33.94
2019-05-03T18:07:50.208Z,33.91
2019-05-03T18:10:18.961Z,34.97
2019-05-03T18:12:47.564Z,34.75
2019-05-03T18:15:16.250Z,34.75
2019-05-03T18:17:45.088Z,36.08
2019-05-03T18:20:15.068Z,34.33
2019-05-03T18:22:43.953Z,34.64
2019-05-03T18:25:14.248Z,34.64
2019-05-03T18:27:44.618Z,35.50
2019-05-03T18:30:14.044Z,36.40
2019-05-03T18:32:42.711Z,35.31
2019-05-03T18:35:11.382Z,34.47
2019-05-03T18:37:40.694Z,34.64
2019-05-03T18:40:09.468Z,35.74
2019-05-03T18:42:44.803Z,33.75
2019-05-03T18:45:19.104Z,34.39
2019-05-03T18:47:47.775Z,35.66
2019-05-03T18:50:16.397Z,35.66
2019-05-03T18:52:45.259Z,35.73
2019-05-03T18:55:14.062Z,34.99
2019-05-03T18:57:44.662Z,34.99
2019-05-03T19:00:15.353Z,36.50
2019-05-03T19:02:44.616Z,37.73
2019-05-03T19:05:15.183Z,38.69
2019-05-03T19:08:08.824Z,39.84
2019-05-03T19:10:46.837Z,39.84
2019-05-03T19:13:19.449Z,38.48
2019-05-03T19:15:48.212Z,39.81
2019-05-03T19:18:35.265Z,38.65
2019-05-03T19:21:04.608Z,38.00
2019-05-03T19:23:35.353Z,37.39
2019-05-03T19:26:05.561Z,38.47
2019-05-03T19:28:35.424Z,37.41
2019-05-03T19:31:05.415Z,37.96
2019-05-03T19:33:34.772Z,36.95
2019-05-03T19:36:04.563Z,38.19
2019-05-03T19:38:35.045Z,38.74
2019-05-03T19:41:03.542Z,37.30
2019-05-03T19:43:32.380Z,39.03
2019-05-03T19:46:01.243Z,38.52
2019-05-03T19:48:30.117Z,39.27
2019-05-03T19:50:58.960Z,40.54
2019-05-03T19:53:49.709Z,41.08
2019-05-03T19:56:19.159Z,38.84
2019-05-03T19:58:47.740Z,40.27
2019-05-03T20:01:35.469Z,39.79
2019-05-03T20:04:34.902Z,41.31
2019-05-03T20:07:25.612Z,39.57
2019-05-03T20:09:54.459Z,41.17
2019-05-03T20:12:24.623Z,41.07
2019-05-03T20:14:54.577Z,39.83
2019-05-03T20:17:23.752Z,40.32
2019-05-03T20:19:54.355Z,43.49
2019-05-03T20:22:24.472Z,43.09
2019-05-03T20:24:55.132Z,42.97
2019-05-03T20:27:24.460Z,41.96
2019-05-03T20:29:55.320Z,41.78
2019-05-03T20:32:25.203Z,42.55
2019-05-03T20:34:55.108Z,42.34
2019-05-03T20:37:25.127Z,40.47
2019-05-03T20:39:54.483Z,42.24
2019-05-03T20:42:40.666Z,41.63
2019-05-03T20:45:14.398Z,43.70
2019-05-03T20:47:47.737Z,43.30
2019-05-03T20:50:17.847Z,43.30
2019-05-03T20:52:46.506Z,43.54
2019-05-03T20:55:15.679Z,42.25
2019-05-03T20:57:44.498Z,43.86
2019-05-03T21:00:15.007Z,42.72
2019-05-03T21:02:51.578Z,44.20
2019-05-03T21:05:26.648Z,44.39
2019-05-03T21:07:45.913Z,44.19
2019-05-03T21:10:15.749Z,43.93
2019-05-03T21:12:44.411Z,45.16
2019-05-03T21:15:21.748Z,45.05
2019-05-03T21:17:59.457Z,45.43
2019-05-03T21:20:50.623Z,46.75
2019-05-03T21:23:20.198Z,46.97
2019-05-03T21:26:13.067Z,44.17
2019-05-03T21:28:38.836Z,44.73
2019-05-03T21:31:07.986Z,44.84
2019-05-03T21:33:36.597Z,44.90
2019-05-03T21:36:05.288Z,44.21
2019-05-03T21:38:35.413Z,46.85
2019-05-03T21:41:05.203Z,46.36
2019-05-03T21:43:34.819Z,45.36
2019-05-03T21:46:17.972Z,46.50
2019-05-03T21:48:51.471Z,45.51
2019-05-03T21:51:20.098Z,48.05
2019-05-03T21:53:48.950Z,44.63
2019-05-03T21:56:17.560Z,45.75
2019-05-03T21:58:46.241Z,46.18
2019-05-03T22:01:15.616Z,46.41
2019-05-03T22:03:44.791Z,45.60
2019-05-03T22:06:15.387Z,46.12
2019-05-03T22:08:45.497Z,46.51
2019-05-03T22:11:14.823Z,48.84
2019-05-03T22:13:45.501Z,47.01
2019-05-03T22:16:25.892Z,48.08
2019-05-03T22:18:54.694Z,47.06
2019-05-03T22:21:32.064Z,46.48
2019-05-03T22:24:26.532Z,47.08
2019-05-03T22:27:00.207Z,46.36
2019-05-03T22:29:28.988Z,48.86
2019-05-03T22:31:57.823Z,49.38
2019-05-03T22:34:26.429Z,49.67
2019-05-03T22:36:55.293Z,49.50
2019-05-03T22:39:25.047Z,50.52
2019-05-03T22:41:54.130Z,50.88
2019-05-03T22:44:22.742Z,50.18
2019-05-03T22:46:51.626Z,51.65
2019-05-03T22:49:20.226Z,53.28
2019-05-03T22:51:49.031Z,50.75
2019-05-03T22:54:18.654Z,52.66
2019-05-03T22:56:47.497Z,52.02
2019-05-03T22:59:16.455Z,49.55
2019-05-03T23:01:45.969Z,49.49
2019-05-03T23:04:14.902Z,50.93
2019-05-03T23:06:46.749Z,50.76
2019-05-03T23:09:15.655Z,49.51
2019-05-03T23:11:44.824Z,50.58
2019-05-03T23:14:15.057Z,50.02
2019-05-03T23:16:44.902Z,50.57
2019-05-03T23:19:14.959Z,48.29
2019-05-03T23:21:58.127Z,50.25
2019-05-03T23:24:26.803Z,52.52
2019-05-03T23:26:55.511Z,50.74
2019-05-03T23:29:24.109Z,51.96
2019-05-03T23:31:52.797Z,51.84
2019-05-03T23:34:21.459Z,52.74
2019-05-03T23:36:50.046Z,51.04
2019-05-03T23:39:18.650Z,49.91
2019-05-03T23:41:47.752Z,50.04
2019-05-03T23:44:16.360Z,52.02
2019-05-03T23:46:52.304Z,51.62
2019-05-03T23:49:21.155Z,50.36
2019-05-03T23:51:55.545Z,51.03
2019-05-03T23:54:24.773Z,50.55
2019-05-03T23:56:54.735Z,50.35
2019-05-03T23:59:23.463Z,52.61
